Dobrodošli na spletni strani vremenske postaje Senovo. Vse informacije so informativnega značaja, saj vremenska postaja ni del državne mreže meteoroloških postaj. AKTUALNIH OBVESTIL NI.


Sneg/Led Od: 23-02-2018 00:00 Do: 23:59 Opozorilo za: Sneg/Led Stopnja: Rumena info button

Pogled proti Armezu več informacij Pogled proti Armezu


Lisca več informacij Lisca


Radar strel več informacij blitzortung!


opozorilo za sneg/led več informacij rain snow radar


Obiščite še:

Template documentation
and downloads

And another site



Weather Underground, zgodovina - Tekstovno

Dnevni povzetek za Januar 16, 2018 Enote:  Angleško    Metrično   Obe
« Predhodni Dan
Naslednji Dan »
Dnevni Tedenski Mesečni Letni Po meri
  Višja: Nižja: Povprečje:
Temperatura: TemperatureC °F -1.0 °F 4.1 °F
Točka rosišča: DewpointC °F -3.1 °F 1.1 °F
Vlažnost: Humidity % 67 % 81 %
Hitrost vetra: WindSpeedKMH mph 0.0 mph 3.7 mph
Sunki vetra: WindSpeedGustKMH mph - -
Veter:- - SW
Zračni tlak: PressurehPa in 999.9 in -
Padavine: 0.3 in    
Historical Graphs
 
 
Tabelarni podarki za Januar 16, 2018
Čas Temperatura Točka rosišča Zračni tlak Veter Hitrost vetra Sunki vetra Vlažnost Intenziteta padavin (urna)
TemperatureC °F DewpointC °F PressurehPa in Calm     Humidity % HourlyPrecipMM in
00:12 -0.1 °F -3.1 °F 1015.1 in SW 1.4 mph 3.2 mph 80 % 0.0 in
00:20 -0.1 °F -3.1 °F 1015.1 in SW 1.6 mph 4.0 mph 80 % 0.0 in
00:58 0.0 °F -2.9 °F 1014.1 in SSW 0.6 mph 3.5 mph 81 % 0.0 in
01:03 -0.1 °F -2.9 °F 1014.1 in SW 1.9 mph 5.5 mph 81 % 0.0 in
01:09 -0.1 °F -2.9 °F 1014.1 in SW 2.9 mph 5.5 mph 81 % 0.0 in
01:35 -0.2 °F -2.9 °F 1014.1 in West 3.4 mph 5.5 mph 82 % 0.0 in
01:41 -0.2 °F -2.9 °F 1014.1 in WSW 3.2 mph 5.5 mph 82 % 0.0 in
01:55 -0.2 °F -2.9 °F 1013.1 in WSW 0.2 mph 3.5 mph 82 % 0.0 in
02:03 -0.2 °F -2.7 °F 1013.1 in West 2.7 mph 6.1 mph 83 % 0.0 in
02:10 -0.2 °F -2.7 °F 1013.1 in West 3.5 mph 6.1 mph 83 % 0.0 in
02:19 -0.2 °F -2.7 °F 1013.1 in WSW 1.4 mph 4.3 mph 83 % 0.0 in
02:26 -0.2 °F -2.7 °F 1013.1 in West 1.9 mph 5.0 mph 83 % 0.0 in
02:31 -0.2 °F -2.7 °F 1013.1 in West 1.6 mph 4.7 mph 83 % 0.0 in
02:42 -0.2 °F -2.7 °F 1012.1 in Calm     83 % 0.0 in
02:50 -0.2 °F -2.6 °F 1012.1 in ENE 0.2 mph 2.1 mph 84 % 0.0 in
02:57 -0.2 °F -2.6 °F 1012.1 in ENE 0.3 mph 2.1 mph 84 % 0.0 in
03:07 -0.2 °F -2.6 °F 1012.1 in Calm     84 % 0.0 in
03:21 -0.2 °F -2.6 °F 1012.1 in SW 2.9 mph 4.3 mph 84 % 0.0 in
03:27 -0.2 °F -2.6 °F 1011.1 in WSW 2.6 mph 4.7 mph 84 % 0.0 in
03:44 -0.2 °F -2.6 °F 1011.1 in SW 0.3 mph 2.6 mph 84 % 0.0 in
03:53 -0.2 °F -2.4 °F 1011.1 in WSW 1.8 mph 5.0 mph 85 % 0.0 in
04:01 -0.3 °F -2.5 °F 1011.1 in West 2.6 mph 5.5 mph 85 % 0.0 in
04:10 -0.3 °F -2.5 °F 1011.1 in Calm   4.3 mph 85 % 0.0 in
04:23 -0.2 °F -2.4 °F 1011.1 in SSW 1.0 mph 4.0 mph 85 % 0.0 in
04:42 -0.2 °F -2.4 °F 1011.1 in SSW 0.6 mph 4.0 mph 85 % 0.0 in
04:49 -0.2 °F -2.3 °F 1011.1 in SSW 3.2 mph 5.5 mph 86 % 0.0 in
04:56 -0.2 °F -2.3 °F 1010.0 in SW 4.3 mph 6.1 mph 86 % 0.0 in
05:02 -0.2 °F -2.3 °F 1010.0 in SW 4.8 mph 6.1 mph 86 % 0.0 in
05:19 -0.2 °F -2.3 °F 1009.0 in SW 3.7 mph 5.5 mph 86 % 0.0 in
05:42 -0.3 °F -2.2 °F 1009.0 in South 1.0 mph 4.3 mph 87 % 0.0 in
05:49 -0.2 °F -2.1 °F 1009.0 in SSW 2.3 mph 4.3 mph 87 % 0.0 in
06:02 -0.2 °F -2.1 °F 1009.0 in Calm     87 % 0.0 in
06:15 -0.3 °F -2.2 °F 1009.0 in West 0.6 mph 4.3 mph 87 % 0.0 in
06:21 -0.3 °F -2.2 °F 1009.0 in Calm     87 % 0.0 in
06:26 -0.3 °F -2.2 °F 1008.0 in Calm     87 % 0.0 in
06:36 -0.3 °F -2.2 °F 1008.0 in SW 1.4 mph 5.5 mph 87 % 0.3 in
06:41 -0.3 °F -2.2 °F 1008.0 in SSW 3.5 mph 5.8 mph 87 % 0.3 in
07:04 -0.3 °F -2.1 °F 1008.0 in SW 1.8 mph 5.0 mph 88 % 0.3 in
07:05 -0.3 °F -2.1 °F 1008.0 in SW 2.1 mph 5.0 mph 88 % 0.3 in
07:12 -0.3 °F -2.1 °F 1008.0 in WSW 3.4 mph 5.5 mph 88 % 0.3 in
07:25 -0.5 °F -2.2 °F 1008.0 in West 3.7 mph 6.4 mph 88 % 0.3 in
07:39 -0.7 °F -2.4 °F 1007.0 in WSW 1.3 mph 4.0 mph 88 % 0.0 in
07:45 -0.9 °F -2.6 °F 1007.0 in Calm     88 % 0.0 in
08:11 -1.0 °F -2.7 °F 1008.0 in Calm     88 % 0.0 in
08:36 -0.5 °F -2.2 °F 1007.0 in SSW 0.6 mph 4.3 mph 88 % 0.0 in
08:51 -0.3 °F -1.9 °F 1007.0 in SW 0.6 mph 3.5 mph 89 % 0.0 in
08:59 -0.1 °F -1.7 °F 1007.0 in SW 1.0 mph 3.5 mph 89 % 0.0 in
09:05 0.0 °F -1.6 °F 1007.0 in SW 0.2 mph 2.6 mph 89 % 0.0 in
09:15 0.1 °F -1.5 °F 1006.0 in South 0.6 mph 3.2 mph 89 % 0.0 in
09:31 0.5 °F -0.9 °F 1007.0 in SE 1.1 mph 5.5 mph 90 % 0.0 in
09:50 0.6 °F -0.8 °F 1007.0 in WNW 0.2 mph 2.6 mph 90 % 0.0 in
09:56 0.7 °F -0.8 °F 1007.0 in NNW 0.6 mph 4.0 mph 90 % 0.0 in
10:01 0.7 °F -0.8 °F 1007.0 in West 1.4 mph 4.7 mph 90 % 0.0 in
10:12 1.1 °F -0.3 °F 1007.0 in WSW 5.6 mph 9.7 mph 90 % 0.0 in
10:18 1.4 °F -0.1 °F 1007.0 in SW 4.7 mph 8.7 mph 90 % 0.3 in
10:25 1.6 °F 0.1 °F 1007.0 in SSW 4.3 mph 9.0 mph 90 % 0.3 in
10:32 2.0 °F 0.6 °F 1007.0 in SW 4.5 mph 8.7 mph 90 % 0.3 in
10:38 2.3 °F 1.0 °F 1007.0 in SW 4.3 mph 8.7 mph 91 % 0.3 in
10:55 3.1 °F 1.8 °F 1006.0 in SW 6.1 mph 9.0 mph 91 % 0.3 in
11:08 3.7 °F 2.4 °F 1005.0 in SW 6.6 mph 10.1 mph 91 % 0.3 in
11:23 4.1 °F 2.8 °F 1005.0 in SW 5.6 mph 7.9 mph 91 % 0.0 in
11:37 4.5 °F 3.2 °F 1003.9 in SSW 5.0 mph 6.9 mph 91 % 0.0 in
11:49 5.1 °F 3.8 °F 1006.0 in South 3.4 mph 6.4 mph 91 % 0.0 in
11:55 5.5 °F 4.2 °F 1006.0 in SSE 2.3 mph 9.0 mph 91 % 0.0 in
12:00 5.8 °F 4.6 °F 1005.0 in South 3.5 mph 9.0 mph 92 % 0.0 in
12:11 6.3 °F 4.9 °F 1003.9 in SSW 4.3 mph 7.9 mph 91 % 0.0 in
12:17 6.5 °F 5.1 °F 1003.9 in SSW 1.9 mph 5.8 mph 91 % 0.0 in
12:39 7.4 °F 5.9 °F 1002.9 in SW 5.8 mph 10.5 mph 90 % 0.0 in
12:45 7.4 °F 5.9 °F 1002.9 in SW 4.2 mph 7.9 mph 90 % 0.0 in
13:04 7.8 °F 6.1 °F 1002.9 in West 4.7 mph 16.9 mph 89 % 0.0 in
13:16 7.9 °F 5.9 °F 1002.9 in West 2.4 mph 6.9 mph 87 % 0.0 in
13:22 7.8 °F 5.8 °F 1002.9 in SSW 2.4 mph 6.1 mph 87 % 0.0 in
13:30 7.9 °F 5.9 °F 1002.9 in SSE 2.3 mph 8.7 mph 87 % 0.0 in
13:35 8.0 °F 5.8 °F 1002.9 in SSW 4.7 mph 10.1 mph 86 % 0.0 in
13:42 8.0 °F 5.6 °F 1002.9 in WSW 4.5 mph 8.7 mph 85 % 0.0 in
13:47 8.1 °F 5.7 °F 1002.9 in West 4.3 mph 9.3 mph 85 % 0.0 in
13:54 8.1 °F 5.7 °F 1002.9 in WNW 3.7 mph 9.3 mph 85 % 0.0 in
14:05 8.2 °F 5.7 °F 1002.9 in South 5.5 mph 13.0 mph 84 % 0.0 in
14:10 8.2 °F 5.5 °F 1002.9 in SSW 7.6 mph 20.9 mph 83 % 0.0 in
14:21 8.4 °F 5.5 °F 1002.9 in SW 8.0 mph 19.1 mph 82 % 0.0 in
14:29 8.5 °F 5.4 °F 1001.9 in SW 6.9 mph 16.3 mph 81 % 0.0 in
14:37 8.6 °F 5.3 °F 1001.9 in SW 5.5 mph 14.0 mph 80 % 0.0 in
14:43 8.7 °F 5.3 °F 1000.9 in West 7.1 mph 17.2 mph 79 % 0.0 in
14:50 8.8 °F 5.2 °F 1000.9 in West 7.2 mph 17.2 mph 78 % 0.0 in
14:57 8.8 °F 5.0 °F 1000.9 in SW 6.8 mph 20.1 mph 77 % 0.0 in
15:03 8.8 °F 4.8 °F 1000.9 in SW 6.3 mph 20.1 mph 76 % 0.0 in
15:11 8.8 °F 4.6 °F 1000.9 in WSW 6.6 mph 12.6 mph 75 % 0.0 in
15:30 8.6 °F 4.1 °F 1000.9 in WSW 7.1 mph 14.0 mph 73 % 0.0 in
15:43 8.5 °F 3.7 °F 1000.9 in West 5.5 mph 13.7 mph 72 % 0.0 in
15:50 8.4 °F 3.7 °F 1000.9 in West 6.6 mph 13.7 mph 72 % 0.0 in
16:04 8.2 °F 3.3 °F 1000.9 in West 7.2 mph 16.9 mph 71 % 0.0 in
16:11 8.2 °F 3.1 °F 1000.9 in West 8.5 mph 16.9 mph 70 % 0.0 in
16:26 8.0 °F 2.8 °F 1000.9 in West 9.8 mph 24.5 mph 70 % 0.0 in
16:47 7.8 °F 2.9 °F 1000.9 in WSW 7.4 mph 18.3 mph 71 % 0.0 in
17:03 7.7 °F 2.9 °F 999.9 in SW 5.6 mph 10.5 mph 72 % 0.0 in
17:20 7.5 °F 2.8 °F 1000.9 in SSW 3.7 mph 12.6 mph 72 % 0.0 in
17:27 7.5 °F 2.9 °F 999.9 in SSW 3.5 mph 12.6 mph 73 % 0.0 in
17:38 7.5 °F 2.9 °F 999.9 in SSW 6.4 mph 11.6 mph 73 % 0.0 in
17:55 7.5 °F 3.2 °F 1000.9 in South 6.8 mph 12.6 mph 74 % 0.0 in
18:05 7.5 °F 3.2 °F 1000.9 in South 5.5 mph 10.5 mph 74 % 0.0 in
18:16 7.5 °F 3.2 °F 999.9 in SSW 3.4 mph 10.5 mph 74 % 0.0 in
18:23 7.5 °F 3.2 °F 999.9 in SSW 6.3 mph 10.5 mph 74 % 0.0 in
18:28 7.5 °F 3.2 °F 999.9 in SSW 4.7 mph 10.1 mph 74 % 0.0 in
18:36 7.5 °F 3.2 °F 999.9 in SW 5.5 mph 15.8 mph 74 % 0.0 in
18:41 7.7 °F 3.6 °F 999.9 in SW 6.8 mph 15.8 mph 75 % 0.0 in
19:00 7.9 °F 3.6 °F 999.9 in SW 5.5 mph 12.2 mph 74 % 0.0 in
19:09 7.9 °F 3.6 °F 999.9 in SW 6.9 mph 14.0 mph 74 % 0.0 in
19:32 7.9 °F 3.6 °F 999.9 in SW 3.9 mph 10.1 mph 74 % 0.0 in
20:02 8.2 °F 3.4 °F 999.9 in WSW 6.3 mph 21.9 mph 72 % 0.0 in
20:07 8.2 °F 3.4 °F 999.9 in WSW 5.3 mph 21.9 mph 72 % 0.0 in
20:15 8.3 °F 3.6 °F 999.9 in West 5.6 mph 11.9 mph 72 % 0.0 in
20:49 8.3 °F 3.2 °F 999.9 in West 3.2 mph 16.3 mph 70 % 0.0 in
21:01 8.3 °F 3.2 °F 1000.9 in WSW 6.6 mph 13.7 mph 70 % 0.0 in
21:12 8.2 °F 2.8 °F 1000.9 in WSW 4.0 mph 8.7 mph 69 % 0.0 in
21:31 8.1 °F 2.8 °F 1000.9 in NW 5.0 mph 14.8 mph 69 % 0.0 in
21:36 8.1 °F 2.8 °F 1000.9 in South 3.7 mph 12.2 mph 69 % 0.0 in
21:57 8.2 °F 2.8 °F 1000.9 in WSW 5.1 mph 14.0 mph 69 % 0.0 in
22:17 8.2 °F 2.8 °F 1000.9 in WNW 3.4 mph 10.1 mph 69 % 0.0 in
22:25 8.3 °F 2.9 °F 1000.9 in WNW 5.3 mph 16.3 mph 69 % 0.0 in
22:31 8.3 °F 2.9 °F 1000.9 in WSW 5.3 mph 13.0 mph 69 % 0.0 in
22:42 8.3 °F 2.7 °F 1000.9 in SW 7.2 mph 14.0 mph 68 % 0.0 in
22:53 8.3 °F 2.7 °F 1000.9 in SW 7.2 mph 19.1 mph 68 % 0.0 in
23:23 8.3 °F 2.5 °F 1000.9 in SW 5.5 mph 10.1 mph 67 % 0.0 in
23:31 8.3 °F 2.5 °F 999.9 in WSW 7.2 mph 20.6 mph 67 % 0.0 in
23:37 8.2 °F 2.4 °F 999.9 in SW 5.3 mph 10.5 mph 67 % 0.0 in
23:48 8.2 °F 2.4 °F 999.9 in SW 5.6 mph 12.6 mph 67 % 0.0 in
23:56 8.1 °F 2.3 °F 999.9 in SW 5.5 mph 14.0 mph 67 % 0.0 in
Vremenska postaja Senovo
Podatki zbrani iz Weather Underground - 2 mb

Script developed by  Jim McMurry - jmcmurry@mwt.net Adapted for the template by  Wim van der Kuil - Leuven-Template.eu

Vremenski podatki so objavljeni na:

European Weather Network

WeatherCloud

Weather Underground

AWEKAS

HAMweather, WeatherForYou, PWS Weather

MapView

Geostik

Slovenia weather network

Oprema, ki se uporablja:

Vremenski program
Cumulus

Vremenski server
Asus

Cumulus

Asus